sensor_id;sensor_type;location;lat;lon;timestamp;P1;durP1;ratioP1;P2;durP2;ratioP2
3297;SDS011;1661;53.572;10.174;2023-02-05T00:01:30;7.05;;;4.10;;
3297;SDS011;1661;53.572;10.174;2023-02-05T00:03:57;6.28;;;4.05;;
3297;SDS011;1661;53.572;10.174;2023-02-05T00:06:23;3.95;;;3.65;;
3297;SDS011;1661;53.572;10.174;2023-02-05T00:08:51;5.68;;;5.18;;
3297;SDS011;1661;53.572;10.174;2023-02-05T00:11:17;6.90;;;5.80;;
3297;SDS011;1661;53.572;10.174;2023-02-05T00:13:44;5.78;;;4.18;;
3297;SDS011;1661;53.572;10.174;2023-02-05T00:16:13;5.07;;;4.57;;
3297;SDS011;1661;53.572;10.174;2023-02-05T00:18:42;3.90;;;3.55;;
3297;SDS011;1661;53.572;10.174;2023-02-05T00:21:09;4.97;;;4.53;;
3297;SDS011;1661;53.572;10.174;2023-02-05T00:23:37;4.88;;;3.33;;
3297;SDS011;1661;53.572;10.174;2023-02-05T00:26:04;4.45;;;4.03;;
3297;SDS011;1661;53.572;10.174;2023-02-05T00:28:32;8.68;;;5.50;;
3297;SDS011;1661;53.572;10.174;2023-02-05T00:30:59;4.68;;;4.28;;
3297;SDS011;1661;53.572;10.174;2023-02-05T00:33:33;4.32;;;3.92;;
3297;SDS011;1661;53.572;10.174;2023-02-05T00:36:00;4.55;;;4.07;;
3297;SDS011;1661;53.572;10.174;2023-02-05T00:38:26;3.92;;;3.30;;
3297;SDS011;1661;53.572;10.174;2023-02-05T00:40:53;5.00;;;3.55;;
3297;SDS011;1661;53.572;10.174;2023-02-05T00:43:20;4.78;;;4.22;;
3297;SDS011;1661;53.572;10.174;2023-02-05T00:45:47;4.50;;;4.18;;
3297;SDS011;1661;53.572;10.174;2023-02-05T00:48:14;5.40;;;5.00;;
3297;SDS011;1661;53.572;10.174;2023-02-05T00:50:42;4.60;;;4.20;;
3297;SDS011;1661;53.572;10.174;2023-02-05T00:53:08;4.63;;;3.85;;
3297;SDS011;1661;53.572;10.174;2023-02-05T00:55:35;4.93;;;4.40;;
3297;SDS011;1661;53.572;10.174;2023-02-05T00:58:02;4.25;;;3.40;;
3297;SDS011;1661;53.572;10.174;2023-02-05T01:00:29;4.22;;;3.83;;
3297;SDS011;1661;53.572;10.174;2023-02-05T01:02:57;3.65;;;3.33;;
3297;SDS011;1661;53.572;10.174;2023-02-05T01:05:24;4.30;;;3.90;;
3297;SDS011;1661;53.572;10.174;2023-02-05T01:07:53;4.53;;;4.10;;
3297;SDS011;1661;53.572;10.174;2023-02-05T01:10:20;4.57;;;4.10;;
3297;SDS011;1661;53.572;10.174;2023-02-05T01:12:47;4.15;;;3.40;;
3297;SDS011;1661;53.572;10.174;2023-02-05T01:15:14;5.05;;;3.20;;
3297;SDS011;1661;53.572;10.174;2023-02-05T01:17:41;4.15;;;3.72;;
3297;SDS011;1661;53.572;10.174;2023-02-05T01:20:09;5.72;;;4.03;;
3297;SDS011;1661;53.572;10.174;2023-02-05T01:22:37;4.32;;;3.97;;
3297;SDS011;1661;53.572;10.174;2023-02-05T01:25:06;4.07;;;3.13;;
3297;SDS011;1661;53.572;10.174;2023-02-05T01:27:35;4.15;;;3.75;;
3297;SDS011;1661;53.572;10.174;2023-02-05T01:30:02;3.90;;;3.55;;
3297;SDS011;1661;53.572;10.174;2023-02-05T01:32:30;3.80;;;3.50;;
3297;SDS011;1661;53.572;10.174;2023-02-05T01:34:57;5.63;;;3.50;;
3297;SDS011;1661;53.572;10.174;2023-02-05T01:37:24;3.63;;;3.33;;
3297;SDS011;1661;53.572;10.174;2023-02-05T01:39:50;3.33;;;3.00;;
3297;SDS011;1661;53.572;10.174;2023-02-05T01:42:19;2.70;;;2.50;;
3297;SDS011;1661;53.572;10.174;2023-02-05T01:48:01;3.83;;;3.53;;
3297;SDS011;1661;53.572;10.174;2023-02-05T01:50:30;3.83;;;3.53;;
3297;SDS011;1661;53.572;10.174;2023-02-05T01:52:59;4.45;;;3.33;;
3297;SDS011;1661;53.572;10.174;2023-02-05T01:55:31;3.50;;;3.15;;
3297;SDS011;1661;53.572;10.174;2023-02-05T01:58:00;5.28;;;3.15;;
3297;SDS011;1661;53.572;10.174;2023-02-05T02:00:27;6.22;;;3.40;;
3297;SDS011;1661;53.572;10.174;2023-02-05T02:02:54;3.83;;;3.53;;
3297;SDS011;1661;53.572;10.174;2023-02-05T02:05:21;4.82;;;2.97;;
3297;SDS011;1661;53.572;10.174;2023-02-05T02:07:47;5.88;;;3.67;;
3297;SDS011;1661;53.572;10.174;2023-02-05T02:10:14;4.00;;;3.13;;
3297;SDS011;1661;53.572;10.174;2023-02-05T02:12:46;4.80;;;4.38;;
3297;SDS011;1661;53.572;10.174;2023-02-05T02:15:17;4.72;;;3.80;;
3297;SDS011;1661;53.572;10.174;2023-02-05T02:17:47;6.35;;;3.65;;
3297;SDS011;1661;53.572;10.174;2023-02-05T02:20:17;11.02;;;3.53;;
3297;SDS011;1661;53.572;10.174;2023-02-05T02:22:48;3.10;;;2.90;;
3297;SDS011;1661;53.572;10.174;2023-02-05T02:25:37;3.65;;;3.13;;
3297;SDS011;1661;53.572;10.174;2023-02-05T02:28:29;4.03;;;3.47;;
3297;SDS011;1661;53.572;10.174;2023-02-05T02:31:00;3.05;;;2.85;;
3297;SDS011;1661;53.572;10.174;2023-02-05T02:33:33;3.90;;;3.50;;
3297;SDS011;1661;53.572;10.174;2023-02-05T02:36:05;4.25;;;3.45;;
3297;SDS011;1661;53.572;10.174;2023-02-05T02:38:38;3.97;;;3.60;;
3297;SDS011;1661;53.572;10.174;2023-02-05T02:41:08;3.67;;;3.38;;
3297;SDS011;1661;53.572;10.174;2023-02-05T02:43:42;4.05;;;3.10;;
3297;SDS011;1661;53.572;10.174;2023-02-05T02:46:15;4.38;;;3.97;;
3297;SDS011;1661;53.572;10.174;2023-02-05T02:48:47;3.80;;;3.50;;
3297;SDS011;1661;53.572;10.174;2023-02-05T02:51:16;4.40;;;4.00;;
3297;SDS011;1661;53.572;10.174;2023-02-05T02:53:47;4.80;;;3.03;;
3297;SDS011;1661;53.572;10.174;2023-02-05T02:56:17;3.35;;;3.05;;
3297;SDS011;1661;53.572;10.174;2023-02-05T02:58:47;4.05;;;3.65;;
3297;SDS011;1661;53.572;10.174;2023-02-05T03:01:18;7.85;;;3.58;;
3297;SDS011;1661;53.572;10.174;2023-02-05T03:03:49;3.88;;;3.38;;
3297;SDS011;1661;53.572;10.174;2023-02-05T03:06:19;3.53;;;2.72;;
3297;SDS011;1661;53.572;10.174;2023-02-05T03:08:49;3.25;;;3.00;;
3297;SDS011;1661;53.572;10.174;2023-02-05T03:11:18;3.80;;;3.50;;
3297;SDS011;1661;53.572;10.174;2023-02-05T03:13:46;3.67;;;3.08;;
3297;SDS011;1661;53.572;10.174;2023-02-05T03:16:15;3.80;;;3.50;;
3297;SDS011;1661;53.572;10.174;2023-02-05T03:18:44;4.25;;;3.13;;
3297;SDS011;1661;53.572;10.174;2023-02-05T03:21:14;4.25;;;3.90;;
3297;SDS011;1661;53.572;10.174;2023-02-05T03:23:43;4.05;;;3.50;;
3297;SDS011;1661;53.572;10.174;2023-02-05T03:26:23;6.55;;;2.53;;
3297;SDS011;1661;53.572;10.174;2023-02-05T03:28:53;3.80;;;3.45;;
3297;SDS011;1661;53.572;10.174;2023-02-05T03:31:22;5.07;;;3.60;;
3297;SDS011;1661;53.572;10.174;2023-02-05T03:34:00;9.02;;;3.38;;
3297;SDS011;1661;53.572;10.174;2023-02-05T03:36:38;4.00;;;3.60;;
3297;SDS011;1661;53.572;10.174;2023-02-05T03:39:12;4.93;;;3.10;;
3297;SDS011;1661;53.572;10.174;2023-02-05T03:41:50;3.38;;;3.13;;
3297;SDS011;1661;53.572;10.174;2023-02-05T03:44:31;6.65;;;4.13;;
3297;SDS011;1661;53.572;10.174;2023-02-05T03:47:10;3.03;;;2.83;;
3297;SDS011;1661;53.572;10.174;2023-02-05T03:49:44;2.90;;;2.70;;
3297;SDS011;1661;53.572;10.174;2023-02-05T03:52:19;3.22;;;2.92;;
3297;SDS011;1661;53.572;10.174;2023-02-05T03:54:54;2.97;;;2.78;;
3297;SDS011;1661;53.572;10.174;2023-02-05T03:57:29;3.47;;;3.22;;
3297;SDS011;1661;53.572;10.174;2023-02-05T04:00:02;4.40;;;3.28;;
3297;SDS011;1661;53.572;10.174;2023-02-05T04:02:30;3.75;;;3.08;;
3297;SDS011;1661;53.572;10.174;2023-02-05T04:04:58;4.18;;;3.88;;
3297;SDS011;1661;53.572;10.174;2023-02-05T04:07:25;4.38;;;3.40;;
3297;SDS011;1661;53.572;10.174;2023-02-05T04:09:51;3.60;;;2.67;;
3297;SDS011;1661;53.572;10.174;2023-02-05T04:12:18;4.75;;;3.60;;
3297;SDS011;1661;53.572;10.174;2023-02-05T04:14:45;5.05;;;4.05;;
3297;SDS011;1661;53.572;10.174;2023-02-05T04:17:13;4.00;;;3.70;;
3297;SDS011;1661;53.572;10.174;2023-02-05T04:19:41;3.20;;;2.95;;
3297;SDS011;1661;53.572;10.174;2023-02-05T04:22:08;4.78;;;3.50;;
3297;SDS011;1661;53.572;10.174;2023-02-05T04:24:35;8.57;;;4.00;;
3297;SDS011;1661;53.572;10.174;2023-02-05T04:27:02;4.78;;;3.95;;
3297;SDS011;1661;53.572;10.174;2023-02-05T04:29:28;5.28;;;4.05;;
3297;SDS011;1661;53.572;10.174;2023-02-05T04:31:55;3.10;;;2.80;;
3297;SDS011;1661;53.572;10.174;2023-02-05T04:34:23;3.83;;;3.53;;
3297;SDS011;1661;53.572;10.174;2023-02-05T04:36:50;5.72;;;4.10;;
3297;SDS011;1661;53.572;10.174;2023-02-05T04:39:17;3.53;;;3.22;;
3297;SDS011;1661;53.572;10.174;2023-02-05T04:41:44;4.10;;;3.22;;
3297;SDS011;1661;53.572;10.174;2023-02-05T04:44:10;5.65;;;3.63;;
3297;SDS011;1661;53.572;10.174;2023-02-05T04:46:39;4.07;;;3.78;;
3297;SDS011;1661;53.572;10.174;2023-02-05T04:49:06;4.47;;;4.07;;
3297;SDS011;1661;53.572;10.174;2023-02-05T04:51:34;3.70;;;3.40;;
3297;SDS011;1661;53.572;10.174;2023-02-05T04:54:01;4.22;;;3.60;;
3297;SDS011;1661;53.572;10.174;2023-02-05T04:56:28;4.30;;;3.42;;
3297;SDS011;1661;53.572;10.174;2023-02-05T04:58:55;6.68;;;4.57;;
3297;SDS011;1661;53.572;10.174;2023-02-05T05:01:22;4.13;;;3.83;;
3297;SDS011;1661;53.572;10.174;2023-02-05T05:03:49;4.30;;;3.90;;
3297;SDS011;1661;53.572;10.174;2023-02-05T05:06:16;4.47;;;4.07;;
3297;SDS011;1661;53.572;10.174;2023-02-05T05:08:45;19.33;;;4.20;;
3297;SDS011;1661;53.572;10.174;2023-02-05T05:11:12;7.78;;;4.82;;
3297;SDS011;1661;53.572;10.174;2023-02-05T05:13:41;4.75;;;4.32;;
3297;SDS011;1661;53.572;10.174;2023-02-05T05:16:08;4.32;;;3.92;;
3297;SDS011;1661;53.572;10.174;2023-02-05T05:18:36;4.82;;;3.72;;
3297;SDS011;1661;53.572;10.174;2023-02-05T05:21:04;4.82;;;4.35;;
3297;SDS011;1661;53.572;10.174;2023-02-05T05:23:32;4.57;;;4.18;;
3297;SDS011;1661;53.572;10.174;2023-02-05T05:26:01;6.97;;;4.28;;
3297;SDS011;1661;53.572;10.174;2023-02-05T05:28:29;4.45;;;4.05;;
3297;SDS011;1661;53.572;10.174;2023-02-05T05:30:58;4.72;;;4.30;;
3297;SDS011;1661;53.572;10.174;2023-02-05T05:33:25;4.25;;;3.60;;
3297;SDS011;1661;53.572;10.174;2023-02-05T05:35:52;6.28;;;4.55;;
3297;SDS011;1661;53.572;10.174;2023-02-05T05:38:19;4.88;;;3.63;;
3297;SDS011;1661;53.572;10.174;2023-02-05T05:40:46;5.57;;;4.18;;
3297;SDS011;1661;53.572;10.174;2023-02-05T05:43:31;5.03;;;4.63;;
3297;SDS011;1661;53.572;10.174;2023-02-05T05:46:13;4.88;;;4.28;;
3297;SDS011;1661;53.572;10.174;2023-02-05T05:48:45;4.30;;;3.92;;
3297;SDS011;1661;53.572;10.174;2023-02-05T05:51:14;4.43;;;4.05;;
3297;SDS011;1661;53.572;10.174;2023-02-05T05:53:41;11.07;;;3.97;;
3297;SDS011;1661;53.572;10.174;2023-02-05T05:56:08;4.43;;;4.07;;
3297;SDS011;1661;53.572;10.174;2023-02-05T05:58:36;4.32;;;3.55;;
3297;SDS011;1661;53.572;10.174;2023-02-05T06:01:04;4.03;;;3.70;;
3297;SDS011;1661;53.572;10.174;2023-02-05T06:03:31;5.25;;;4.75;;
3297;SDS011;1661;53.572;10.174;2023-02-05T06:05:59;5.40;;;4.20;;
3297;SDS011;1661;53.572;10.174;2023-02-05T06:08:26;4.95;;;4.32;;
3297;SDS011;1661;53.572;10.174;2023-02-05T06:10:53;3.90;;;3.38;;
3297;SDS011;1661;53.572;10.174;2023-02-05T06:13:20;4.85;;;3.85;;
3297;SDS011;1661;53.572;10.174;2023-02-05T06:15:48;4.80;;;4.35;;
3297;SDS011;1661;53.572;10.174;2023-02-05T06:18:15;5.35;;;4.00;;
3297;SDS011;1661;53.572;10.174;2023-02-05T06:20:42;5.80;;;4.22;;
3297;SDS011;1661;53.572;10.174;2023-02-05T06:23:09;9.02;;;4.57;;
3297;SDS011;1661;53.572;10.174;2023-02-05T06:25:36;8.38;;;4.40;;
3297;SDS011;1661;53.572;10.174;2023-02-05T06:28:03;6.20;;;4.22;;
3297;SDS011;1661;53.572;10.174;2023-02-05T06:30:30;5.15;;;4.60;;
3297;SDS011;1661;53.572;10.174;2023-02-05T06:32:58;5.13;;;4.65;;
3297;SDS011;1661;53.572;10.174;2023-02-05T06:35:25;8.55;;;3.45;;
3297;SDS011;1661;53.572;10.174;2023-02-05T06:37:52;4.72;;;4.32;;
3297;SDS011;1661;53.572;10.174;2023-02-05T06:40:19;7.55;;;5.15;;
3297;SDS011;1661;53.572;10.174;2023-02-05T06:42:46;7.10;;;4.60;;
3297;SDS011;1661;53.572;10.174;2023-02-05T06:45:13;4.90;;;4.50;;
3297;SDS011;1661;53.572;10.174;2023-02-05T06:47:40;8.00;;;4.35;;
3297;SDS011;1661;53.572;10.174;2023-02-05T06:50:08;5.80;;;4.20;;
3297;SDS011;1661;53.572;10.174;2023-02-05T06:52:36;5.78;;;3.78;;
3297;SDS011;1661;53.572;10.174;2023-02-05T06:55:03;4.65;;;4.25;;
3297;SDS011;1661;53.572;10.174;2023-02-05T06:57:31;6.15;;;4.38;;
3297;SDS011;1661;53.572;10.174;2023-02-05T06:59:57;5.75;;;5.25;;
3297;SDS011;1661;53.572;10.174;2023-02-05T07:02:24;5.22;;;4.20;;
3297;SDS011;1661;53.572;10.174;2023-02-05T07:04:51;7.28;;;5.80;;
3297;SDS011;1661;53.572;10.174;2023-02-05T07:07:19;6.05;;;4.57;;
3297;SDS011;1661;53.572;10.174;2023-02-05T07:09:46;9.40;;;4.47;;
3297;SDS011;1661;53.572;10.174;2023-02-05T07:12:13;4.15;;;3.75;;
3297;SDS011;1661;53.572;10.174;2023-02-05T07:14:40;4.97;;;4.28;;
3297;SDS011;1661;53.572;10.174;2023-02-05T07:17:08;4.70;;;3.88;;
3297;SDS011;1661;53.572;10.174;2023-02-05T07:19:35;19.70;;;8.95;;
3297;SDS011;1661;53.572;10.174;2023-02-05T07:22:02;8.27;;;6.63;;
3297;SDS011;1661;53.572;10.174;2023-02-05T07:24:30;6.78;;;6.18;;
3297;SDS011;1661;53.572;10.174;2023-02-05T07:26:57;4.63;;;4.28;;
3297;SDS011;1661;53.572;10.174;2023-02-05T07:29:24;6.40;;;4.60;;
3297;SDS011;1661;53.572;10.174;2023-02-05T07:31:51;5.07;;;4.78;;
3297;SDS011;1661;53.572;10.174;2023-02-05T07:34:18;5.80;;;4.45;;
3297;SDS011;1661;53.572;10.174;2023-02-05T07:36:47;5.45;;;4.95;;
3297;SDS011;1661;53.572;10.174;2023-02-05T07:39:15;4.82;;;3.70;;
3297;SDS011;1661;53.572;10.174;2023-02-05T07:41:43;5.63;;;3.90;;
3297;SDS011;1661;53.572;10.174;2023-02-05T07:44:10;5.43;;;4.93;;
3297;SDS011;1661;53.572;10.174;2023-02-05T07:46:37;7.53;;;5.20;;
3297;SDS011;1661;53.572;10.174;2023-02-05T07:49:04;5.00;;;4.60;;
3297;SDS011;1661;53.572;10.174;2023-02-05T07:51:31;5.35;;;4.93;;
3297;SDS011;1661;53.572;10.174;2023-02-05T07:53:58;5.82;;;5.07;;
3297;SDS011;1661;53.572;10.174;2023-02-05T07:56:25;5.25;;;4.75;;
3297;SDS011;1661;53.572;10.174;2023-02-05T07:58:53;6.32;;;5.80;;
3297;SDS011;1661;53.572;10.174;2023-02-05T08:01:20;8.13;;;4.13;;
3297;SDS011;1661;53.572;10.174;2023-02-05T08:03:46;5.10;;;4.70;;
3297;SDS011;1661;53.572;10.174;2023-02-05T08:06:14;7.50;;;5.80;;
3297;SDS011;1661;53.572;10.174;2023-02-05T08:08:41;5.60;;;4.93;;
3297;SDS011;1661;53.572;10.174;2023-02-05T08:11:09;6.78;;;5.40;;
3297;SDS011;1661;53.572;10.174;2023-02-05T08:13:39;4.75;;;4.35;;
3297;SDS011;1661;53.572;10.174;2023-02-05T08:16:07;6.97;;;4.57;;
3297;SDS011;1661;53.572;10.174;2023-02-05T08:18:35;6.90;;;4.43;;
3297;SDS011;1661;53.572;10.174;2023-02-05T08:21:02;6.05;;;4.65;;
3297;SDS011;1661;53.572;10.174;2023-02-05T08:23:29;6.95;;;4.80;;
3297;SDS011;1661;53.572;10.174;2023-02-05T08:25:56;4.93;;;4.38;;
3297;SDS011;1661;53.572;10.174;2023-02-05T08:28:24;5.93;;;5.28;;
3297;SDS011;1661;53.572;10.174;2023-02-05T08:30:52;6.93;;;4.95;;
3297;SDS011;1661;53.572;10.174;2023-02-05T08:33:21;9.45;;;4.93;;
3297;SDS011;1661;53.572;10.174;2023-02-05T08:35:48;5.07;;;4.15;;
3297;SDS011;1661;53.572;10.174;2023-02-05T08:38:15;10.20;;;4.20;;
3297;SDS011;1661;53.572;10.174;2023-02-05T08:40:42;5.85;;;4.88;;
3297;SDS011;1661;53.572;10.174;2023-02-05T08:43:09;8.60;;;4.10;;
3297;SDS011;1661;53.572;10.174;2023-02-05T08:45:36;6.50;;;5.45;;
3297;SDS011;1661;53.572;10.174;2023-02-05T08:48:03;3.80;;;3.47;;
3297;SDS011;1661;53.572;10.174;2023-02-05T08:50:31;4.82;;;3.90;;
3297;SDS011;1661;53.572;10.174;2023-02-05T08:52:58;5.65;;;5.00;;
3297;SDS011;1661;53.572;10.174;2023-02-05T08:55:24;4.28;;;3.88;;
3297;SDS011;1661;53.572;10.174;2023-02-05T08:57:51;6.75;;;5.70;;
3297;SDS011;1661;53.572;10.174;2023-02-05T09:00:18;7.60;;;4.60;;
3297;SDS011;1661;53.572;10.174;2023-02-05T09:02:46;6.25;;;5.15;;
3297;SDS011;1661;53.572;10.174;2023-02-05T09:05:13;4.53;;;4.13;;
3297;SDS011;1661;53.572;10.174;2023-02-05T09:07:41;6.70;;;4.95;;
3297;SDS011;1661;53.572;10.174;2023-02-05T09:10:09;4.65;;;4.00;;
3297;SDS011;1661;53.572;10.174;2023-02-05T09:12:37;9.98;;;5.55;;
3297;SDS011;1661;53.572;10.174;2023-02-05T09:15:05;5.15;;;4.65;;
3297;SDS011;1661;53.572;10.174;2023-02-05T09:17:33;7.43;;;5.15;;
3297;SDS011;1661;53.572;10.174;2023-02-05T09:20:00;5.15;;;4.75;;
3297;SDS011;1661;53.572;10.174;2023-02-05T09:22:26;5.53;;;4.70;;
3297;SDS011;1661;53.572;10.174;2023-02-05T09:24:55;6.70;;;5.40;;
3297;SDS011;1661;53.572;10.174;2023-02-05T09:27:21;5.60;;;4.95;;
3297;SDS011;1661;53.572;10.174;2023-02-05T09:29:48;4.73;;;4.27;;
3297;SDS011;1661;53.572;10.174;2023-02-05T09:32:15;4.80;;;4.37;;
3297;SDS011;1661;53.572;10.174;2023-02-05T09:34:42;6.55;;;4.82;;
3297;SDS011;1661;53.572;10.174;2023-02-05T09:37:09;4.72;;;4.25;;
3297;SDS011;1661;53.572;10.174;2023-02-05T09:39:36;6.60;;;5.60;;
3297;SDS011;1661;53.572;10.174;2023-02-05T09:42:08;7.07;;;4.95;;
3297;SDS011;1661;53.572;10.174;2023-02-05T09:44:45;5.20;;;4.67;;
3297;SDS011;1661;53.572;10.174;2023-02-05T09:47:22;5.63;;;4.57;;
3297;SDS011;1661;53.572;10.174;2023-02-05T09:49:54;6.40;;;5.10;;
3297;SDS011;1661;53.572;10.174;2023-02-05T09:52:28;6.87;;;5.00;;
3297;SDS011;1661;53.572;10.174;2023-02-05T09:54:59;5.50;;;5.03;;
3297;SDS011;1661;53.572;10.174;2023-02-05T09:57:33;10.30;;;4.57;;
3297;SDS011;1661;53.572;10.174;2023-02-05T10:00:02;5.80;;;5.30;;
3297;SDS011;1661;53.572;10.174;2023-02-05T10:02:36;8.83;;;5.10;;
3297;SDS011;1661;53.572;10.174;2023-02-05T10:05:14;6.60;;;5.23;;
3297;SDS011;1661;53.572;10.174;2023-02-05T10:07:42;10.20;;;5.97;;
3297;SDS011;1661;53.572;10.174;2023-02-05T10:10:18;5.70;;;4.67;;
3297;SDS011;1661;53.572;10.174;2023-02-05T10:12:59;10.40;;;5.80;;
3297;SDS011;1661;53.572;10.174;2023-02-05T10:15:46;8.40;;;6.07;;
3297;SDS011;1661;53.572;10.174;2023-02-05T10:18:23;8.53;;;5.93;;
3297;SDS011;1661;53.572;10.174;2023-02-05T10:20:59;5.70;;;4.80;;
3297;SDS011;1661;53.572;10.174;2023-02-05T10:23:35;9.53;;;5.87;;
3297;SDS011;1661;53.572;10.174;2023-02-05T10:26:16;11.00;;;5.57;;
3297;SDS011;1661;53.572;10.174;2023-02-05T10:28:48;5.87;;;5.30;;
3297;SDS011;1661;53.572;10.174;2023-02-05T10:31:39;6.77;;;4.90;;
3297;SDS011;1661;53.572;10.174;2023-02-05T10:34:17;6.23;;;4.73;;
3297;SDS011;1661;53.572;10.174;2023-02-05T10:36:51;5.50;;;4.47;;
3297;SDS011;1661;53.572;10.174;2023-02-05T10:39:19;7.33;;;4.10;;
3297;SDS011;1661;53.572;10.174;2023-02-05T10:41:50;7.80;;;4.90;;
3297;SDS011;1661;53.572;10.174;2023-02-05T10:44:24;5.10;;;4.70;;
3297;SDS011;1661;53.572;10.174;2023-02-05T10:46:55;5.80;;;4.43;;
3297;SDS011;1661;53.572;10.174;2023-02-05T10:49:30;6.43;;;4.90;;
3297;SDS011;1661;53.572;10.174;2023-02-05T10:52:07;5.40;;;4.90;;
3297;SDS011;1661;53.572;10.174;2023-02-05T10:54:36;5.30;;;4.30;;
3297;SDS011;1661;53.572;10.174;2023-02-05T10:57:08;5.60;;;4.10;;
3297;SDS011;1661;53.572;10.174;2023-02-05T10:59:43;5.87;;;4.27;;
3297;SDS011;1661;53.572;10.174;2023-02-05T11:02:16;4.00;;;3.60;;
3297;SDS011;1661;53.572;10.174;2023-02-05T11:04:45;7.70;;;4.60;;
3297;SDS011;1661;53.572;10.174;2023-02-05T11:07:17;4.93;;;3.87;;
3297;SDS011;1661;53.572;10.174;2023-02-05T11:09:48;4.83;;;4.13;;
3297;SDS011;1661;53.572;10.174;2023-02-05T11:12:16;7.73;;;4.80;;
3297;SDS011;1661;53.572;10.174;2023-02-05T11:14:55;7.47;;;4.17;;
3297;SDS011;1661;53.572;10.174;2023-02-05T11:17:25;4.63;;;4.23;;
3297;SDS011;1661;53.572;10.174;2023-02-05T11:19:58;6.07;;;4.50;;
3297;SDS011;1661;53.572;10.174;2023-02-05T11:22:27;5.33;;;4.87;;
3297;SDS011;1661;53.572;10.174;2023-02-05T11:25:04;5.53;;;4.43;;
3297;SDS011;1661;53.572;10.174;2023-02-05T11:27:37;5.27;;;4.87;;
3297;SDS011;1661;53.572;10.174;2023-02-05T11:30:21;4.07;;;3.77;;
3297;SDS011;1661;53.572;10.174;2023-02-05T11:32:52;5.20;;;4.70;;
3297;SDS011;1661;53.572;10.174;2023-02-05T11:35:20;5.33;;;4.83;;
3297;SDS011;1661;53.572;10.174;2023-02-05T11:37:57;9.13;;;4.33;;
3297;SDS011;1661;53.572;10.174;2023-02-05T11:40:27;4.80;;;3.80;;
3297;SDS011;1661;53.572;10.174;2023-02-05T11:43:00;5.90;;;5.40;;
3297;SDS011;1661;53.572;10.174;2023-02-05T11:45:31;5.90;;;4.77;;
3297;SDS011;1661;53.572;10.174;2023-02-05T11:48:01;5.23;;;4.57;;
3297;SDS011;1661;53.572;10.174;2023-02-05T11:50:30;5.90;;;4.57;;
3297;SDS011;1661;53.572;10.174;2023-02-05T11:53:04;4.73;;;4.17;;
3297;SDS011;1661;53.572;10.174;2023-02-05T11:55:35;4.80;;;4.40;;
3297;SDS011;1661;53.572;10.174;2023-02-05T11:58:03;6.63;;;4.63;;
3297;SDS011;1661;53.572;10.174;2023-02-05T12:00:33;5.50;;;4.60;;
3297;SDS011;1661;53.572;10.174;2023-02-05T12:03:04;8.33;;;4.90;;
3297;SDS011;1661;53.572;10.174;2023-02-05T12:05:39;7.50;;;5.70;;
3297;SDS011;1661;53.572;10.174;2023-02-05T12:08:14;10.77;;;6.20;;
3297;SDS011;1661;53.572;10.174;2023-02-05T12:10:52;4.40;;;3.90;;
3297;SDS011;1661;53.572;10.174;2023-02-05T12:13:26;9.33;;;4.17;;
3297;SDS011;1661;53.572;10.174;2023-02-05T12:16:09;5.40;;;4.13;;
3297;SDS011;1661;53.572;10.174;2023-02-05T12:18:48;9.23;;;6.03;;
3297;SDS011;1661;53.572;10.174;2023-02-05T12:21:24;7.93;;;5.97;;
3297;SDS011;1661;53.572;10.174;2023-02-05T12:24:09;5.03;;;4.30;;
3297;SDS011;1661;53.572;10.174;2023-02-05T12:26:55;5.10;;;4.47;;
3297;SDS011;1661;53.572;10.174;2023-02-05T12:29:36;5.43;;;4.90;;
3297;SDS011;1661;53.572;10.174;2023-02-05T12:32:18;6.67;;;4.07;;
3297;SDS011;1661;53.572;10.174;2023-02-05T12:35:01;4.90;;;4.37;;
3297;SDS011;1661;53.572;10.174;2023-02-05T12:37:40;5.47;;;5.00;;
3297;SDS011;1661;53.572;10.174;2023-02-05T12:40:15;5.27;;;4.70;;
3297;SDS011;1661;53.572;10.174;2023-02-05T12:43:00;4.77;;;4.37;;
3297;SDS011;1661;53.572;10.174;2023-02-05T12:45:33;12.57;;;5.13;;
3297;SDS011;1661;53.572;10.174;2023-02-05T12:48:15;5.97;;;5.37;;
3297;SDS011;1661;53.572;10.174;2023-02-05T12:51:01;6.43;;;5.03;;
3297;SDS011;1661;53.572;10.174;2023-02-05T12:53:42;6.80;;;5.10;;
3297;SDS011;1661;53.572;10.174;2023-02-05T12:56:30;12.73;;;6.53;;
3297;SDS011;1661;53.572;10.174;2023-02-05T12:59:14;8.00;;;4.70;;
3297;SDS011;1661;53.572;10.174;2023-02-05T13:01:49;7.13;;;4.80;;
3297;SDS011;1661;53.572;10.174;2023-02-05T13:04:22;5.03;;;4.40;;
3297;SDS011;1661;53.572;10.174;2023-02-05T13:06:55;5.80;;;5.27;;
3297;SDS011;1661;53.572;10.174;2023-02-05T13:09:30;6.17;;;5.13;;
3297;SDS011;1661;53.572;10.174;2023-02-05T13:12:07;8.13;;;5.47;;
3297;SDS011;1661;53.572;10.174;2023-02-05T13:14:38;8.97;;;5.63;;
3297;SDS011;1661;53.572;10.174;2023-02-05T13:17:10;6.13;;;5.40;;
3297;SDS011;1661;53.572;10.174;2023-02-05T13:19:42;6.17;;;5.57;;
3297;SDS011;1661;53.572;10.174;2023-02-05T13:22:14;16.73;;;5.83;;
3297;SDS011;1661;53.572;10.174;2023-02-05T13:25:04;3.30;;;3.00;;
3297;SDS011;1661;53.572;10.174;2023-02-05T13:28:00;5.90;;;5.40;;
3297;SDS011;1661;53.572;10.174;2023-02-05T13:30:53;6.60;;;4.67;;
3297;SDS011;1661;53.572;10.174;2023-02-05T13:33:22;5.33;;;4.20;;
3297;SDS011;1661;53.572;10.174;2023-02-05T13:35:52;7.50;;;4.60;;
3297;SDS011;1661;53.572;10.174;2023-02-05T13:38:35;5.93;;;5.33;;
3297;SDS011;1661;53.572;10.174;2023-02-05T13:41:19;7.57;;;5.20;;
3297;SDS011;1661;53.572;10.174;2023-02-05T13:44:10;12.37;;;5.27;;
3297;SDS011;1661;53.572;10.174;2023-02-05T13:47:03;5.80;;;5.00;;
3297;SDS011;1661;53.572;10.174;2023-02-05T13:56:03;5.27;;;4.80;;
3297;SDS011;1661;53.572;10.174;2023-02-05T13:58:44;5.10;;;4.67;;
3297;SDS011;1661;53.572;10.174;2023-02-05T14:01:17;5.10;;;4.10;;
3297;SDS011;1661;53.572;10.174;2023-02-05T14:03:53;5.27;;;4.87;;
3297;SDS011;1661;53.572;10.174;2023-02-05T14:06:26;9.07;;;5.53;;
3297;SDS011;1661;53.572;10.174;2023-02-05T14:08:58;5.97;;;5.47;;
3297;SDS011;1661;53.572;10.174;2023-02-05T14:11:28;4.57;;;3.90;;
3297;SDS011;1661;53.572;10.174;2023-02-05T14:14:25;7.93;;;5.77;;
3297;SDS011;1661;53.572;10.174;2023-02-05T14:16:53;4.83;;;4.27;;
3297;SDS011;1661;53.572;10.174;2023-02-05T14:19:22;5.70;;;4.67;;
3297;SDS011;1661;53.572;10.174;2023-02-05T14:21:57;9.30;;;5.80;;
3297;SDS011;1661;53.572;10.174;2023-02-05T14:24:36;5.50;;;4.63;;
3297;SDS011;1661;53.572;10.174;2023-02-05T14:33:03;6.13;;;5.50;;
3297;SDS011;1661;53.572;10.174;2023-02-05T14:35:46;5.67;;;5.13;;
3297;SDS011;1661;53.572;10.174;2023-02-05T14:38:14;5.50;;;4.40;;
3297;SDS011;1661;53.572;10.174;2023-02-05T14:40:57;6.10;;;5.50;;
3297;SDS011;1661;53.572;10.174;2023-02-05T14:43:29;5.20;;;3.07;;
3297;SDS011;1661;53.572;10.174;2023-02-05T14:45:58;8.87;;;5.93;;
3297;SDS011;1661;53.572;10.174;2023-02-05T14:48:30;8.53;;;4.17;;
3297;SDS011;1661;53.572;10.174;2023-02-05T14:51:02;5.53;;;5.03;;
3297;SDS011;1661;53.572;10.174;2023-02-05T14:53:31;5.07;;;4.30;;
3297;SDS011;1661;53.572;10.174;2023-02-05T14:56:02;7.00;;;5.23;;
3297;SDS011;1661;53.572;10.174;2023-02-05T14:58:31;5.43;;;4.43;;
3297;SDS011;1661;53.572;10.174;2023-02-05T15:03:56;6.40;;;4.60;;
3297;SDS011;1661;53.572;10.174;2023-02-05T15:06:24;6.30;;;4.30;;
3297;SDS011;1661;53.572;10.174;2023-02-05T15:08:54;6.87;;;3.80;;
3297;SDS011;1661;53.572;10.174;2023-02-05T15:11:32;4.87;;;4.50;;
3297;SDS011;1661;53.572;10.174;2023-02-05T15:23:05;8.13;;;6.67;;
3297;SDS011;1661;53.572;10.174;2023-02-05T15:25:49;6.67;;;5.93;;
3297;SDS011;1661;53.572;10.174;2023-02-05T15:28:23;8.50;;;6.40;;
3297;SDS011;1661;53.572;10.174;2023-02-05T15:31:01;7.70;;;6.60;;
3297;SDS011;1661;53.572;10.174;2023-02-05T15:33:35;14.07;;;7.20;;
3297;SDS011;1661;53.572;10.174;2023-02-05T15:36:10;10.80;;;7.93;;
3297;SDS011;1661;53.572;10.174;2023-02-05T15:38:45;7.90;;;6.67;;
3297;SDS011;1661;53.572;10.174;2023-02-05T15:41:17;7.93;;;5.67;;
3297;SDS011;1661;53.572;10.174;2023-02-05T15:43:57;13.27;;;6.80;;
3297;SDS011;1661;53.572;10.174;2023-02-05T15:46:26;7.23;;;6.53;;
3297;SDS011;1661;53.572;10.174;2023-02-05T15:48:53;8.50;;;7.03;;
3297;SDS011;1661;53.572;10.174;2023-02-05T15:51:23;15.43;;;8.07;;